Terminal Aerodrome Forecast
Issued by NWS

Home | Current Version | Previous Version | Text Only | Print | Product List | Glossary On
Versions: 1 2 3 4 5 6 7 8 9 10 11 12 13 14 15 16 17 18 19 20 21 22 23 24 25 26 27 28 29 30 31
000
FTUS43 KAPX 231700
TAFAPN
TAF
KAPN 231720Z 2318/2418 06007KT P6SM BKN012
     FM232000 10007KT P6SM SCT020
     FM240000 00000KT P6SM SKC
     FM240200 10003KT 3SM BR BKN004
     FM240600 00000KT 1/2SM FG OVC002
     FM241500 12007KT P6SM SCT022=

USA.gov is the U.S. government's official web portal to all federal, state and local government web resources and services.